You are here:
  • Home »
  • Tender »
  • Open Tender Enquiry

Open Tender Enquiry

2900-2801 2800-2701 2700-2601 2600-2501 2500-2401 2400-2301 2300-2201 2200-2101
2100-2001 2000-1901 1900-1801 1800-1701 1700-1601 1600-1501 1500-1401 1400-1301
1300-1201 1200-1101 1100-1001 1000-901 900-801 800-701 700-601 600-501
500-401 400-301 300-201 200-101 100-1 1300-1251 1250-1201 1200-1151
1150-1101 1100-1051 1050-1001 1000-951 950-901 900-851 850-801 800-751
750-701 700-651 650-601 600-551 550-501 500-451 450-401 400-351
350-301 300-251 250-201 200-151 150-101 100-51 50-01

Sl.No. Enquiry No. Date Due on Short Description
2401 1/PE171533/1 13.12.2017 16.01.2018 End Termination of Power Cable
2402 1/PE171535/1 13.12.2017 16.01.2018 Toggle Switch
2403 1/PE171564/1 13.12.2017 16.01.2018 Antivirus
2404 1/PE171565/1 13.12.2017 16.01.2018 Sprocket for feed belt
2405 1/PE171567/1 13.12.2017 16.01.2018 Cloth Hessain
2406 1/PE171569/1 13.12.2017 16.01.2018 Broom Stick
2407 1/PE171573/1 13.12.2017 16.01.2018 Napthalene Ball
2408 1/PE171582/1 13.12.2017 16.01.2018 Impermo
2409 1/PE171689/1 13.12.2017 16.01.2018 Cotton Waste
2410 1/PE171690/1 13.12.2017 16.01.2018 Cloth Markin
2411 2/PE170886/1-TMPL 09/11/2017 22/12/2017 HDPE PIPES
2412 2/PE170887/1-TMPL 09/11/2017 22/12/2017 CENTRIFUGAL PUMP
2413 2/PE170893/1-TMPL 13/11/2017 22/12/2017 Spares for different models of Kirloskar
2414 3/PE170888/1-TMPL 09/11/2017 22/12/2017 SPARES FOR ESCORT MAKE HYDRA CRANE
2415 2/PE170964/1-TMPL 05/12/2017 12/01/2018 SUPPLY FILTERS FOR THE MAINTENANCE OF KC-9 COMPRESSOR &MORE ITEMS
2416 2/PE170984/1-TMPL 08/12/2017 16/01/2018 SPARES PIN BUSH COUPLING & MORE ITEMS
2417 2/PE170993/1-TMPL 12/12/2017 19/01/2018 SPARES OF TOGGLE ASSEMBLY FOR OHE JAW CRUSHER
2418 2/PE170995/1-TMPL 12/12/2017 19/01/2018 PINION SHAFT HOUSING ASSEMBLY FOR SECONDARY & TERITORYCONE CRUSHER
2419 2/PE170999/1-TMPL 12/12/2017 19/01/2018 200NB x 3D x 90° BEND HOSE WITH SWIVEL (K-NOZZLE) RUBBERFLANGES
2420 2/PE171002/1-TMPL 12/12/2017 19/01/2018 FLAT JET HIGH IMPACT TYPE SPRAY NOZZLE
2421 2/PE171003/1-TMPL 12/12/2017 19/01/2018 SPARES FOR FLUID COUPLING OF DIFFERENT MODEL
2422 3/PE170932/1-TMPL 25/11/2017 29/12/2017 Servo Mesh sp320 oil & MORE ITEMS
2423 3/PE170998/1-TMPL 12/12/2017 19/01/2018 SPARES FOR BOTTOM BLOCK ASSEMBLY(4 FALL)CAPACITY-20 T
2424 3/PE171004/1-TMPL 12/12/2017 19/01/2018 spares for Hindusthan make pay loader(Model:HM2021)
2425 1/PE171063/7 14.12.2017 17.12.2017 Iron Pan
2426 1/PE171070/7 14.12.2017 17.12.2017 Pvc Insulated Auto Cable
2427 1/PE171076/7 14.12.2017 17.12.2017 Digital Temperature Scanner
2428 1/PE171077/7 14.12.2017 17.12.2017 Wall Mounting Fan
2429 1/PE171078/7 14.12.2017 17.12.2017 Kit Jointing Straight Cable
2430 1/PE171082/7 14.12.2017 17.12.2017 Grinding Wheel
2431 1/PE171126/7 14.12.2017 17.12.2017 HD Metal Hose Reel
2432 1/PE171138/7 14.12.2017 17.12.2017 Coil Closing
2433 1/PE171140/7 14.12.2017 17.12.2017 Fuse
2434 1/PE171148/7 14.12.2017 17.12.2017 Power Meter
2435 1/PE170958/1-TMPL 02/12/2017 12/01/2018 3TF51 TYPE POWER CONTACTOR & MORE ITEMS
2436 1/PE170959/1-TMPL 05/12/2017 09/01/2018 PUSH BUTTON ACTUATORS & MORE ITEMS
2437 2/PE172227/8 13/12/2017 15/01/2018 NON ASBESTOS COVER
2438 2/PE172226/8 13/12/2017 15/01/2018 BELLOWS
2439 2/PE171021/7 14/12/2017 15/01/2018 MS HOSE CLAMP
2440 2/PE171020/7 14/12/2017 15/01/2018 COUPLING WASHER
2441 2/PE171017/7 14/12/2017 15/01/2018 STEEL CLOW COUPLING
2442 2/PE171484/1 14/12/2017 15/01/2018 RTD ASSEMBLY
2443 2/PE171483/1 14/12/2017 15/01/2018 GEARED MOTOR
2444 2/PE171482/1 14/12/2017 15/01/2018 REDUCTION G BOX
2445 2/PE171480/1 14/12/2017 15/01/2018 PRESSURE GAUGE
2446 2/PE171461/1 13/12/2017 15/01/2018 CONVEYOR BELT
2447 2/PE172173/8 13/12/2017 15/01/2018 ON /OFF VALVE
2448 2/PE171481/1 14/12/2017 15/01/2018 PH/ORP ONLINE METER
2449 2/PE172228/8 13/12/2017 15/01/2018 FLOCAL TRANSFER PUMP
2450 1/PE171534/1 19.12.2017 22.01.2018 Cutting Machine
2451 1/PE171551/1 19.12.2017 22.01.2018 Bush Cutter
2452 1/PE171553/1 19.12.2017 22.01.2018 Computer Chair
2453 1/PE171555/1 19.12.2017 22.01.2018 Grinding Wheel
2454 1/ PE171635/1 19.12.2017 22.01.2018 Moving Contact
2455 1/PE171636/1 19.12.2017 22.01.2018 Asbestor Cement
2456 1/ PE171637/1 19.12.2017 22.01.2018 Asbestor Cement
2457 1/ PE171652/1 19.12.2017 22.01.2018 Mecatec Express
2458 1/ PE171653/1 19.12.2017 22.01.2018 Godrej Lock
2459 1/ PE171691/1 19.12.2017 22.01.2018 Bolt with nuts
2460 2/PE171489/1 19.12.2017 22.01.2018 POLYURETHENE SCREEN
2461 1/172309/8 20.12.2017 23.01.2018 Battery
2462 1/172311/8 20.12.2017 23.01.2018 Kit Repair
2463 1/172319/8 20.12.2017 23.01.2018 Electrode
2464 1/172320/8 20.12.2017 23.01.2018 Electrode
2465 1/172321/8 20.12.2017 23.01.2018 Electrode
2466 1/172322/8 20.12.2017 23.01.2018 Spherical Bearing
2467 1/172323/8 20.12.2017 23.01.2018 Xerox Machine
2468 1/172324/8 20.12.2017 23.01.2018 Cooling Fan
2469 1/172525/8 20.12.2017 23.01.2018 Media Converter
2470 1/172529/8 20.12.2017 23.01.2018 Air Cooler
2471 Corrigendum-1 to 170892 02.01.2018
2472 1-PE171046-1- 19.12.2017 26.12.2017 Godrej Furniture
2473 1/PE172255/8 21.12.2017 24.01.2018 TRS Cable
2474 1/PE172289/8 21.12.2017 24.01.2018 Measuring Instrument
2475 1/PE172290/8 21.12.2017 24.01.2018 Super Electro Safe
2476 1/PE172291/8 21.12.2017 24.01.2018 Power Supply
2477 1/PE172292/8 21.12.2017 24.01.2018 Tube Light Fitting
2478 1/PE172351/8 21.12.2017 24.01.2018 Insulator Tester
2479 1/PE172421/8 21.12.2017 24.01.2018 Winding Rope
2480 1/PE172422/8 21.12.2017 24.01.2018 Spares for Gas Cutting Items
2481 1/PE172523/8 21.12.2017 24.01.2018 Bolt & Nuts
2482 1/PE171074/7 22.12.2017 25.01.2018 Towel
2483 1/PE171075/7 22.12.2017 25.01.2018 LED TV
2484 1/PE171081/7 22.12.2017 25.01.2018 Old Cattle
2485 1/PE171115/7 22.12.2017 25.01.2018 Printing Items
2486 1/PE171116/7 22.12.2017 25.01.2018 Cylinder fire extinguisher
2487 1/PE171127/7 22.12.2017 25.01.2018 Steel Wire Hayledge Rope
2488 1/PE171128/7 22.12.2017 25.01.2018 Tape
2489 1/PE171195/7 22.12.2017 25.01.2018 Medicines
2490 1/PE171196/7 22.12.2017 25.01.2018 Bed sheet
2491 1/PE171197/7 22.12.2017 25.01.2018 Carbon Brush
2492 3-PE171149-7 13/12/2017 15/01/2018 Nylon Braided hose
2493 3/PE172401/8 13/12/2017 15/01/2018 TUBE & FLAP
2494 3/PE172403/8 13/12/2017 15/01/2018 WHEEL RIM ASSY.
2495 3/PE171639/1 13/12/2017 15/01/2018 G.I.FLANGE
2496 3/PE172399/8 13/12/2017 15/01/2018 SALWOOD SLEEPER
2497 3/PE171141/7 13/12/2017 15/01/2018 FUEL FILTER ELEMENT
2498 3/PE172397/8 13/12/2017 15/01/2018 SPARES FOR EJC
2499 3/PE172427/8 13/12/2017 15/01/2018 HT BOLT
2500 3/PE172400/8 13/12/2017 15/01/2018 SPARES FOR ST 710